Time;durP1;ratioP1;P1;durP2;ratioP2;P2;SDS_P1;SDS_P2;PMS_P1;PMS_P2;Temp;Humidity;BMP_temperature;BMP_pressure;BME280_temperature;BME280_humidity;BME280_pressure;Samples;Min_cycle;Max_cycle;Signal;HPM_P1;HPM_P2
2022/01/07 00:02:27;;;;;;;54.78;29.63;;;3.80;99.90;;;;;;4755289;30;20032;-91
2022/01/07 00:05:42;;;;;;;114.20;55.92;;;3.80;99.90;;;;;;4779922;29;20118;-92
2022/01/07 00:08:36;;;;;;;1999.90;898.75;;;6.10;99.90;;;;;;4740246;30;20110;-92
2022/01/07 00:21:33;;;;;;;472.15;347.40;;;3.90;99.90;;;;;;4784797;30;20090;-91
2022/01/07 00:24:12;;;;;;;121.13;95.40;;;4.00;99.90;;;;;;4782501;30;20071;-91
2022/01/07 00:26:44;;;;;;;1995.15;547.10;;;3.90;99.90;;;;;;4740172;30;20057;-90
2022/01/07 00:29:35;;;;;;;271.35;109.13;;;3.90;99.90;;;;;;4760451;30;20184;-89
2022/01/07 00:32:07;;;;;;;1343.68;716.50;;;3.80;99.90;;;;;;4753054;30;20453;-91
2022/01/07 00:34:55;;;;;;;1154.05;340.58;;;3.80;99.90;;;;;;4738281;30;20059;-93
2022/01/07 00:37:48;;;;;;;1552.45;830.47;;;;;;;;;;4776876;30;20210;-90
2022/01/07 00:40:43;;;;;;;1914.05;601.33;;;5.10;1.00;;;;;;4783100;29;20059;-90
2022/01/07 00:43:18;;;;;;;472.15;308.92;;;3.70;1.00;;;;;;4763287;30;20581;-88
2022/01/07 00:45:44;;;;;;;1999.90;917.63;;;3.60;1.00;;;;;;4782272;30;20087;-83
2022/01/07 00:48:10;;;;;;;1748.85;626.40;;;;;;;;;;4768171;30;20090;-84
2022/01/07 00:50:36;;;;;;;1301.93;569.47;;;;;;;;;;4782169;30;20055;-85
2022/01/07 00:53:02;;;;;;;839.50;186.67;;;3.40;1.00;;;;;;4782053;30;20062;-84
2022/01/07 00:55:28;;;;;;;1345.82;468.63;;;4.10;46.20;;;;;;4766318;30;20417;-84
2022/01/07 00:57:54;;;;;;;44.45;26.10;;;5.20;99.90;;;;;;4782717;30;20062;-84
2022/01/07 01:00:22;;;;;;;1999.90;546.28;;;2.60;99.90;;;;;;4767334;30;20056;-83
2022/01/07 01:02:49;;;;;;;1999.90;788.80;;;4.00;99.90;;;;;;4768120;30;20142;-84
2022/01/07 01:05:15;;;;;;;1805.80;478.23;;;4.60;99.90;;;;;;4768428;30;20052;-84
2022/01/07 01:07:42;;;;;;;1141.60;305.38;;;3.30;99.90;;;;;;4768260;30;20054;-82
2022/01/07 01:10:09;;;;;;;52.77;28.57;;;4.00;99.90;;;;;;4781880;30;20068;-81
2022/01/07 01:12:36;;;;;;;660.90;263.67;;;3.50;99.90;;;;;;4768904;30;20127;-81
2022/01/07 01:15:05;;;;;;;158.50;50.85;;;2.80;99.90;;;;;;4768551;30;20147;-81
2022/01/07 01:17:31;;;;;;;270.80;125.18;;;3.50;99.90;;;;;;4768802;30;20044;-81
2022/01/07 01:19:57;;;;;;;55.47;36.30;;;5.40;99.90;;;;;;4782167;30;20063;-80
2022/01/07 01:22:22;;;;;;;566.65;290.95;;;4.70;99.90;;;;;;4767699;30;20074;-81
2022/01/07 01:24:48;;;;;;;273.80;154.80;;;3.00;99.90;;;;;;4768040;30;20106;-81
2022/01/07 01:27:15;;;;;;;47.38;21.38;;;;;;;;;;4767956;30;20139;-81
2022/01/07 01:29:40;;;;;;;864.10;507.20;;;5.50;99.90;;;;;;4779281;30;20457;-80
2022/01/07 01:32:06;;;;;;;40.92;20.42;;;4.40;99.90;;;;;;4785854;29;20063;-80
2022/01/07 01:34:33;;;;;;;1924.22;589.63;;;;;;;;;;4785577;29;20083;-79
2022/01/07 01:36:58;;;;;;;1367.00;510.98;;;3.90;99.90;;;;;;4785399;29;20065;-78
2022/01/07 01:39:24;;;;;;;68.20;52.83;;;3.70;99.90;;;;;;4785141;29;20055;-79
2022/01/07 01:41:50;;;;;;;96.37;23.90;;;3.00;99.90;;;;;;4786114;30;20051;-79
2022/01/07 01:44:16;;;;;;;1947.57;790.03;;;3.70;99.90;;;;;;4785411;29;20043;-79
2022/01/07 01:46:42;;;;;;;1999.90;834.13;;;4.00;99.90;;;;;;4785794;29;20051;-79
2022/01/07 01:49:08;;;;;;;1201.20;267.15;;;6.20;99.90;;;;;;4785565;30;20112;-79
2022/01/07 01:51:34;;;;;;;152.68;57.70;;;5.40;99.90;;;;;;4785585;29;20059;-78
2022/01/07 01:54:00;;;;;;;497.35;201.98;;;3.30;99.90;;;;;;4784917;30;20138;-78
2022/01/07 01:56:26;;;;;;;47.28;24.08;;;5.30;99.90;;;;;;4785355;30;20508;-78
2022/01/07 01:58:52;;;;;;;970.15;383.55;;;6.40;99.90;;;;;;4801293;29;20059;-78
2022/01/07 02:01:18;;;;;;;1206.60;432.20;;;3.80;99.90;;;;;;4802309;29;20445;-79
2022/01/07 02:03:44;;;;;;;172.20;156.60;;;;;;;;;;4796143;29;20050;-77
2022/01/07 02:06:10;;;;;;;800.15;244.63;;;4.30;99.90;;;;;;4804447;29;20511;-77
2022/01/07 02:08:37;;;;;;;175.40;45.17;;;4.50;99.90;;;;;;4806359;29;20085;-79
2022/01/07 02:11:03;;;;;;;751.92;295.73;;;4.70;99.90;;;;;;4807027;29;20134;-77
2022/01/07 02:13:29;;;;;;;1075.63;408.75;;;;;;;;;;4806501;29;20095;-78
2022/01/07 02:15:55;;;;;;;37.42;22.73;;;3.70;99.90;;;;;;4806977;29;20055;-78
2022/01/07 02:18:21;;;;;;;110.78;57.25;;;;;;;;;;4806626;29;20078;-78
2022/01/07 02:20:48;;;;;;;1999.90;666.42;;;4.00;99.90;;;;;;4806634;29;20051;-78
2022/01/07 02:23:16;;;;;;;1999.90;828.53;;;3.60;99.90;;;;;;4806098;29;20055;-84
2022/01/07 02:25:43;;;;;;;1999.90;826.45;;;3.90;99.90;;;;;;4806207;29;20059;-80
2022/01/07 02:28:10;;;;;;;654.27;174.83;;;3.00;99.90;;;;;;4806637;29;20058;-79
2022/01/07 02:30:36;;;;;;;54.05;30.98;;;;;;;;;;4806066;29;20538;-80
2022/01/07 02:33:02;;;;;;;166.10;46.63;;;4.20;99.90;;;;;;4806866;29;20070;-81
2022/01/07 02:35:30;;;;;;;110.70;75.10;;;3.60;99.90;;;;;;4789626;29;20055;-81
2022/01/07 02:37:57;;;;;;;629.17;286.95;;;3.90;99.90;;;;;;4806155;29;20500;-82
2022/01/07 02:40:23;;;;;;;63.67;27.63;;;;;;;;;;4805573;29;20055;-81
2022/01/07 02:42:50;;;;;;;75.82;34.25;;;;;;;;;;4806792;29;20073;-79
2022/01/07 02:45:16;;;;;;;57.65;35.38;;;;;;;;;;4806362;29;20090;-91
2022/01/07 02:47:54;;;;;;;946.03;297.50;;;4.00;99.90;;;;;;4806499;29;20392;-84
2022/01/07 02:50:28;;;;;;;;;;;7.00;99.90;;;;;;4806533;29;20488;-81
2022/01/07 02:52:55;;;;;;;1753.07;583.05;;;4.10;99.90;;;;;;4806024;29;19925;-82
2022/01/07 02:55:22;;;;;;;1999.90;662.28;;;3.30;99.90;;;;;;4789510;29;20051;-81
2022/01/07 02:57:49;;;;;;;316.70;267.35;;;6.70;99.90;;;;;;4804887;29;20063;-82
2022/01/07 03:00:17;;;;;;;49.03;28.42;;;4.20;99.90;;;;;;4805944;29;20069;-82
2022/01/07 03:02:44;;;;;;;656.33;298.08;;;3.70;99.90;;;;;;4806077;29;20069;-82
2022/01/07 03:05:10;;;;;;;1853.07;419.20;;;3.00;99.90;;;;;;4806055;29;20055;-82
2022/01/07 03:07:37;;;;;;;1999.90;638.25;;;;;;;;;;4805465;29;20061;-82
2022/01/07 03:10:04;;;;;;;68.00;48.95;;;2.70;99.90;;;;;;4805619;29;20051;-82
2022/01/07 03:12:29;;;;;;;1999.90;730.67;;;3.90;99.90;;;;;;4805864;29;20050;-82
2022/01/07 03:14:56;;;;;;;182.07;41.90;;;4.00;99.90;;;;;;4805569;29;20153;-83
2022/01/07 03:17:22;;;;;;;59.08;30.92;;;5.40;99.90;;;;;;4805464;29;20066;-82
2022/01/07 03:19:47;;;;;;;358.98;110.10;;;5.00;99.90;;;;;;4805666;29;20062;-82
2022/01/07 03:22:13;;;;;;;69.88;41.60;;;4.00;99.90;;;;;;4805465;29;20054;-82
2022/01/07 03:24:40;;;;;;;53.00;30.52;;;4.70;99.90;;;;;;4788953;29;20490;-82
2022/01/07 03:27:06;;;;;;;99.70;35.60;;;4.70;99.90;;;;;;4789433;29;20421;-82
2022/01/07 03:29:33;;;;;;;1999.90;980.90;;;3.60;99.90;;;;;;4804920;29;20543;-82
2022/01/07 03:31:59;;;;;;;783.75;193.73;;;4.60;99.90;;;;;;4805613;29;20058;-82
2022/01/07 03:34:24;;;;;;;1397.20;406.70;;;5.40;99.90;;;;;;4805277;29;20154;-82
2022/01/07 03:36:50;;;;;;;401.08;149.65;;;5.60;99.90;;;;;;4804136;29;20047;-83
2022/01/07 03:39:16;;;;;;;65.30;40.72;;;5.20;99.90;;;;;;4805206;29;20069;-82
2022/01/07 03:41:42;;;;;;;1999.90;583.35;;;5.10;99.90;;;;;;4803707;29;20493;-83
2022/01/07 03:44:07;;;;;;;64.20;47.38;;;5.60;99.90;;;;;;4805526;29;20512;-86
2022/01/07 03:46:33;;;;;;;1211.68;412.90;;;5.70;99.90;;;;;;4805400;29;20061;-83
2022/01/07 03:48:59;;;;;;;352.88;137.95;;;4.00;99.90;;;;;;4805562;29;20051;-83
2022/01/07 03:51:24;;;;;;;98.38;73.68;;;5.50;99.90;;;;;;4804954;29;20098;-84
2022/01/07 03:53:50;;;;;;;1557.47;516.08;;;4.60;99.90;;;;;;4788419;29;20058;-83
2022/01/07 03:56:18;;;;;;;1999.90;619.95;;;7.30;99.90;;;;;;4805245;29;20057;-83
2022/01/07 03:58:45;;;;;;;76.40;63.05;;;5.20;99.90;;;;;;4804641;29;20371;-84
2022/01/07 04:01:10;;;;;;;1999.90;636.88;;;5.40;99.90;;;;;;4802436;29;20626;-82
2022/01/07 04:03:36;;;;;;;139.38;61.13;;;;;;;;;;4804699;29;20121;-83
2022/01/07 04:06:02;;;;;;;1999.90;857.75;;;5.30;99.90;;;;;;4789086;29;20059;-82
2022/01/07 04:08:28;;;;;;;1216.38;441.85;;;5.20;99.90;;;;;;4804404;29;20070;-82
2022/01/07 04:10:53;;;;;;;75.32;44.85;;;7.90;99.90;;;;;;4803368;29;20088;-82
2022/01/07 04:13:19;;;;;;;174.20;67.65;;;3.20;99.90;;;;;;4804799;29;20058;-81
2022/01/07 04:15:45;;;;;;;1999.90;844.03;;;4.80;99.90;;;;;;4804523;29;20346;-82
2022/01/07 04:18:10;;;;;;;1035.20;422.08;;;4.60;99.90;;;;;;4805114;29;20081;-81
2022/01/07 04:20:36;;;;;;;485.77;205.95;;;7.50;99.90;;;;;;4804366;29;20050;-83
2022/01/07 04:23:04;;;;;;;321.50;161.23;;;5.50;99.90;;;;;;4804632;29;20555;-83
2022/01/07 04:25:30;;;;;;;1642.05;459.45;;;5.50;99.90;;;;;;4804056;29;20125;-82
2022/01/07 04:28:07;;;;;;;1818.40;641.60;;;5.40;99.90;;;;;;4788145;29;20563;-82
2022/01/07 04:30:36;;;;;;;75.35;48.85;;;4.90;99.90;;;;;;4804315;29;20051;-82
2022/01/07 04:33:03;;;;;;;199.35;179.43;;;5.00;99.90;;;;;;4804730;29;20055;-83
2022/01/07 04:35:31;;;;;;;79.47;48.50;;;5.50;99.90;;;;;;4803409;29;20061;-89
2022/01/07 04:37:56;;;;;;;783.80;360.73;;;5.90;99.90;;;;;;4804008;29;20054;-82
2022/01/07 04:40:22;;;;;;;76.65;53.60;;;7.70;99.90;;;;;;4804215;29;20047;-82
2022/01/07 04:42:49;;;;;;;1999.90;932.90;;;7.90;99.90;;;;;;4804171;29;20140;-84
2022/01/07 04:45:15;;;;;;;1652.35;536.38;;;8.10;99.90;;;;;;4804595;29;20046;-82
2022/01/07 04:47:41;;;;;;;1999.90;490.77;;;5.20;99.90;;;;;;4804283;29;20058;-82
2022/01/07 04:50:11;;;;;;;1069.30;277.05;;;7.60;99.90;;;;;;4804421;29;20100;-82
2022/01/07 04:52:38;;;;;;;76.65;53.60;;;4.70;99.90;;;;;;4803559;29;20066;-82
2022/01/07 04:55:05;;;;;;;1999.90;535.73;;;7.10;99.90;;;;;;4804026;29;20103;-82
2022/01/07 04:57:30;;;;;;;103.57;54.97;;;4.80;99.90;;;;;;4804473;29;20587;-83
2022/01/07 04:59:57;;;;;;;63.47;42.35;;;;;;;;;;4804193;29;20067;-82
2022/01/07 05:02:22;;;;;;;672.13;248.43;;;4.70;99.90;;;;;;4804361;29;20058;-83
2022/01/07 05:04:48;;;;;;;276.48;142.05;;;6.70;99.90;;;;;;4803671;29;20051;-82
2022/01/07 05:07:15;;;;;;;252.60;170.15;;;6.50;99.90;;;;;;4803926;29;20059;-82
2022/01/07 05:09:42;;;;;;;621.28;223.32;;;5.30;99.90;;;;;;4803875;29;20121;-80
2022/01/07 05:12:08;;;;;;;1684.30;792.85;;;4.90;99.90;;;;;;4804581;29;20089;-81
2022/01/07 05:14:34;;;;;;;1407.70;437.92;;;;;;;;;;4803920;29;20054;-91
2022/01/07 05:16:59;;;;;;;1637.93;308.83;;;7.00;99.90;;;;;;4804163;29;20055;-81
2022/01/07 05:19:25;;;;;;;1617.70;503.98;;;6.80;99.90;;;;;;4804416;29;20142;-82
2022/01/07 05:21:51;;;;;;;58.00;44.55;;;6.70;99.90;;;;;;4787800;29;20488;-82
2022/01/07 05:24:16;;;;;;;1626.68;531.67;;;7.10;99.90;;;;;;4804018;29;20054;-82
2022/01/07 05:26:42;;;;;;;115.95;103.90;;;4.60;99.90;;;;;;4803637;29;20470;-84
2022/01/07 05:29:08;;;;;;;1986.80;590.78;;;4.80;99.90;;;;;;4802550;29;20051;-82
2022/01/07 05:31:34;;;;;;;1852.95;524.75;;;;;;;;;;4804033;29;20487;-82
2022/01/07 05:34:00;;;;;;;1999.90;762.33;;;4.50;99.90;;;;;;4803385;29;20465;-82
2022/01/07 05:36:26;;;;;;;352.63;265.60;;;7.30;99.90;;;;;;4804194;29;20137;-82
2022/01/07 05:38:52;;;;;;;1728.78;413.05;;;;;;;;;;4786919;29;20102;-82
2022/01/07 05:41:18;;;;;;;1999.90;846.58;;;5.30;99.90;;;;;;4805684;29;20065;-81
2022/01/07 05:43:44;;;;;;;76.15;52.03;;;5.10;99.90;;;;;;4807076;29;20050;-82
2022/01/07 05:46:14;;;;;;;49.50;38.03;;;;;;;;;;4807499;29;20136;-82
2022/01/07 05:48:40;;;;;;;57.83;46.33;;;;;;;;;;4807105;29;20137;-82
2022/01/07 05:51:07;;;;;;;1974.68;565.30;;;5.50;99.90;;;;;;4807579;29;20050;-83
2022/01/07 05:53:33;;;;;;;1852.22;617.17;;;;;;;;;;4806770;29;20057;-82
2022/01/07 05:55:59;;;;;;;169.05;144.77;;;4.70;99.90;;;;;;4806724;29;20492;-82
2022/01/07 05:58:24;;;;;;;172.65;125.68;;;7.90;99.90;;;;;;4807390;29;20253;-83
2022/01/07 06:00:50;;;;;;;508.15;274.42;;;5.10;99.90;;;;;;4805273;29;20058;-83
2022/01/07 06:03:16;;;;;;;166.07;76.07;;;;;;;;;;4807222;29;20078;-84
2022/01/07 06:05:42;;;;;;;512.93;190.70;;;4.30;99.90;;;;;;4807014;29;20058;-83
2022/01/07 06:08:09;;;;;;;1999.90;640.88;;;4.70;99.90;;;;;;4807187;29;20138;-82
2022/01/07 06:10:35;;;;;;;1999.90;687.67;;;6.60;99.90;;;;;;4807141;29;20054;-82
2022/01/07 06:13:01;;;;;;;52.17;35.60;;;6.20;99.90;;;;;;4806657;29;20062;-82
2022/01/07 06:15:26;;;;;;;48.20;32.17;;;4.50;99.90;;;;;;4807840;29;20062;-83
2022/01/07 06:17:52;;;;;;;1999.90;999.90;;;6.30;99.90;;;;;;4807332;29;20477;-83
2022/01/07 06:20:19;;;;;;;106.18;61.75;;;6.10;99.90;;;;;;4807581;29;20546;-82
2022/01/07 06:22:45;;;;;;;1999.90;861.85;;;5.60;99.90;;;;;;4790695;29;20412;-82
2022/01/07 06:25:11;;;;;;;1999.90;824.20;;;5.70;99.90;;;;;;4776375;29;20051;-83
2022/01/07 06:27:38;;;;;;;1902.80;604.92;;;5.70;99.90;;;;;;4807362;29;20047;-85
2022/01/07 06:30:05;;;;;;;993.95;249.65;;;6.80;99.90;;;;;;4806766;29;20149;-83
2022/01/07 06:32:31;;;;;;;384.13;193.07;;;5.20;99.90;;;;;;4807432;29;20101;-81
2022/01/07 06:34:57;;;;;;;88.60;78.97;;;6.40;99.90;;;;;;4806560;29;20090;-82
2022/01/07 06:37:23;;;;;;;161.90;64.38;;;5.00;99.90;;;;;;4790899;29;20421;-81
2022/01/07 06:39:48;;;;;;;84.78;74.40;;;4.80;99.90;;;;;;4807025;29;20050;-86
2022/01/07 06:42:14;;;;;;;1999.90;810.22;;;5.30;99.90;;;;;;4807268;29;20051;-84
2022/01/07 06:44:40;;;;;;;1999.90;912.40;;;7.10;99.90;;;;;;4807134;29;20043;-94
2022/01/07 06:47:06;;;;;;;44.65;33.63;;;6.60;99.90;;;;;;4806119;29;20047;-82
2022/01/07 06:49:32;;;;;;;1662.68;521.15;;;4.90;99.90;;;;;;4806831;29;20115;-82
2022/01/07 06:51:58;;;;;;;1999.90;823.22;;;5.40;99.90;;;;;;4805948;29;20058;-82
2022/01/07 06:54:25;;;;;;;1283.95;474.52;;;4.90;99.90;;;;;;4807032;29;20070;-82
2022/01/07 06:56:50;;;;;;;1971.38;532.83;;;6.60;99.90;;;;;;4789784;29;20090;-81
2022/01/07 06:59:16;;;;;;;175.07;75.18;;;5.30;99.90;;;;;;4806618;29;20101;-84
2022/01/07 07:01:43;;;;;;;145.75;115.15;;;6.00;99.90;;;;;;4806050;29;20058;-88
2022/01/07 07:04:09;;;;;;;324.27;271.48;;;5.60;99.90;;;;;;4790378;29;20082;-82
2022/01/07 07:06:35;;;;;;;443.27;287.42;;;5.60;99.90;;;;;;4806781;29;20050;-81
2022/01/07 07:09:02;;;;;;;1773.82;610.25;;;6.30;99.90;;;;;;4806050;29;20069;-81
2022/01/07 07:11:28;;;;;;;60.42;45.92;;;6.50;99.90;;;;;;4806590;29;20134;-82
2022/01/07 07:13:54;;;;;;;465.30;170.40;;;4.80;99.90;;;;;;4806051;29;20142;-82
2022/01/07 07:16:20;;;;;;;61.67;51.05;;;5.20;99.90;;;;;;4790141;29;20055;-81
2022/01/07 07:18:46;;;;;;;1999.90;698.83;;;3.40;99.90;;;;;;4805423;29;20588;-81
2022/01/07 07:21:12;;;;;;;1999.90;646.58;;;7.80;99.90;;;;;;4805861;29;20059;-81
2022/01/07 07:23:38;;;;;;;1908.40;757.35;;;3.10;99.90;;;;;;4805291;29;20116;-85
2022/01/07 07:26:04;;;;;;;49.97;38.65;;;5.80;99.90;;;;;;4805080;29;20067;-83
2022/01/07 07:28:29;;;;;;;52.58;41.92;;;5.60;99.90;;;;;;4805243;29;20054;-82
2022/01/07 07:30:59;;;;;;;1999.90;728.92;;;4.30;99.90;;;;;;4805509;29;20055;-82
2022/01/07 07:38:37;;;;;;;1999.90;981.10;;;3.00;99.90;;;;;;4805183;29;20134;-87
2022/01/07 07:41:07;;;;;;;60.47;44.40;;;4.90;99.90;;;;;;4805234;29;20063;-82
2022/01/07 07:43:34;;;;;;;824.75;512.10;;;7.60;99.90;;;;;;4805489;29;20043;-85
2022/01/07 07:46:00;;;;;;;179.05;145.85;;;5.90;99.90;;;;;;4805338;29;20062;-82
2022/01/07 07:48:26;;;;;;;70.93;61.75;;;7.90;99.90;;;;;;4789404;29;20051;-84
2022/01/07 07:50:52;;;;;;;804.17;344.35;;;5.20;99.90;;;;;;4805201;29;20405;-81
2022/01/07 07:53:18;;;;;;;118.38;61.15;;;6.00;99.90;;;;;;4804914;29;20051;-81
2022/01/07 07:55:51;;;;;;;1223.70;283.90;;;7.80;99.90;;;;;;4805080;29;20130;-80
2022/01/07 07:58:16;;;;;;;1999.90;873.17;;;6.50;99.90;;;;;;4805658;29;20131;-81
2022/01/07 08:00:43;;;;;;;418.77;250.23;;;;;;;;;;4805217;29;20536;-82
2022/01/07 08:03:08;;;;;;;1999.90;682.97;;;5.20;99.90;;;;;;4793219;29;20058;-81
2022/01/07 08:05:34;;;;;;;1965.32;716.50;;;8.00;99.90;;;;;;4804477;29;20047;-81
2022/01/07 08:08:02;;;;;;;78.20;69.50;;;6.60;99.90;;;;;;4804459;29;20058;-80
2022/01/07 08:10:29;;;;;;;1968.35;514.03;;;6.00;99.90;;;;;;4804526;29;20090;-83
2022/01/07 08:18:23;;;;;;;603.80;310.83;;;7.10;99.90;;;;;;4805038;29;20063;-81
2022/01/07 08:20:49;;;;;;;669.65;429.77;;;;;;;;;;4804953;29;20062;-85
2022/01/07 08:23:15;;;;;;;144.82;89.05;;;6.10;99.90;;;;;;4804526;29;20133;-81
2022/01/07 08:25:42;;;;;;;80.32;57.58;;;6.60;99.90;;;;;;4804592;29;20149;-84
2022/01/07 08:28:08;;;;;;;129.63;115.75;;;6.10;99.90;;;;;;4804385;29;20138;-82
2022/01/07 08:30:58;;;;;;;1999.90;899.92;;;;;;;;;;4805124;29;20110;-81
2022/01/07 08:36:09;;;;;;;178.32;57.17;;;6.30;99.90;;;;;;4804348;29;20478;-81
2022/01/07 08:38:35;;;;;;;1047.63;378.83;;;6.40;99.90;;;;;;4804219;29;20084;-84
2022/01/07 08:41:01;;;;;;;1999.90;728.20;;;5.30;99.90;;;;;;4772643;29;20070;-84
2022/01/07 08:43:27;;;;;;;1418.10;583.42;;;6.50;99.90;;;;;;4787767;29;20054;-82
2022/01/07 08:45:53;;;;;;;99.85;67.47;;;6.20;99.90;;;;;;4804105;29;20461;-82
2022/01/07 08:48:19;;;;;;;121.47;67.32;;;;;;;;;;4804554;29;20051;-81
2022/01/07 08:50:44;;;;;;;126.75;98.90;;;6.20;99.90;;;;;;4804202;29;20540;-82
2022/01/07 08:53:11;;;;;;;1615.35;466.88;;;6.20;99.90;;;;;;4787481;29;20149;-81
2022/01/07 08:55:37;;;;;;;1999.90;584.00;;;9.40;99.90;;;;;;4788183;29;20057;-81
2022/01/07 08:58:03;;;;;;;96.72;68.30;;;7.50;99.90;;;;;;4804050;29;20778;-82
2022/01/07 09:00:30;;;;;;;830.90;370.85;;;6.70;99.90;;;;;;4804447;29;20114;-81
2022/01/07 09:02:56;;;;;;;1643.10;560.90;;;6.50;99.90;;;;;;4804156;29;20089;-82
2022/01/07 09:05:21;;;;;;;473.77;286.58;;;6.50;99.90;;;;;;4802974;29;20097;-82
2022/01/07 09:07:47;;;;;;;1999.90;855.00;;;9.20;99.90;;;;;;4804057;29;20090;-82
2022/01/07 09:10:13;;;;;;;1998.30;652.63;;;6.50;99.90;;;;;;4803680;29;20398;-82
2022/01/07 09:12:38;;;;;;;623.67;378.95;;;6.50;99.90;;;;;;4804331;29;20497;-81
2022/01/07 09:15:05;;;;;;;1436.50;422.23;;;6.30;99.90;;;;;;4803431;29;20042;-82
2022/01/07 09:17:32;;;;;;;1999.90;589.30;;;6.80;99.90;;;;;;4804191;29;20047;-82
2022/01/07 09:19:59;;;;;;;147.80;89.10;;;7.80;99.90;;;;;;4803421;29;20067;-81
2022/01/07 09:22:24;;;;;;;208.23;178.25;;;9.20;99.90;;;;;;4803883;29;20443;-81
2022/01/07 09:24:50;;;;;;;94.50;73.60;;;9.10;99.90;;;;;;4803425;29;20047;-82
2022/01/07 09:27:19;;;;;;;1807.25;406.48;;;8.50;99.90;;;;;;4788009;29;20065;-83
2022/01/07 09:29:45;;;;;;;1999.90;947.60;;;7.10;99.90;;;;;;4802632;29;20389;-81
2022/01/07 09:32:12;;;;;;;1743.20;444.00;;;6.70;99.90;;;;;;4803200;29;20055;-81
2022/01/07 09:34:38;;;;;;;1162.43;283.67;;;6.60;99.90;;;;;;4803939;29;20055;-81
2022/01/07 09:37:04;;;;;;;1855.82;573.70;;;7.00;99.90;;;;;;4802968;29;20111;-81
2022/01/07 09:39:32;;;;;;;1979.10;550.75;;;6.80;99.90;;;;;;4804010;29;20111;-80
2022/01/07 09:42:00;;;;;;;1999.90;850.33;;;8.00;99.90;;;;;;4803385;29;20094;-81
2022/01/07 09:44:26;;;;;;;86.72;54.03;;;8.50;99.90;;;;;;4803476;29;20594;-82
2022/01/07 09:46:52;;;;;;;1055.50;327.98;;;8.60;99.90;;;;;;4803574;29;20046;-80
2022/01/07 09:49:18;;;;;;;1999.90;999.90;;;6.40;99.90;;;;;;4801784;29;20054;-83
2022/01/07 09:51:43;;;;;;;1999.90;623.03;;;9.60;99.90;;;;;;4803315;29;20109;-81
2022/01/07 09:54:10;;;;;;;107.40;59.85;;;7.40;99.90;;;;;;4803062;29;20137;-81
2022/01/07 09:56:37;;;;;;;129.35;93.63;;;9.70;99.90;;;;;;4803589;29;20137;-82
2022/01/07 09:59:05;;;;;;;1999.90;584.65;;;6.70;99.90;;;;;;4784237;30;20071;-81
2022/01/07 10:01:51;;;;;;;1999.90;999.90;;;8.00;99.90;;;;;;4785848;30;20052;-82
2022/01/07 10:04:32;;;;;;;149.85;126.88;;;5.20;99.90;;;;;;4800805;29;20142;-81
2022/01/07 10:07:20;;;;;;;1002.92;422.27;;;9.80;99.90;;;;;;4803263;29;20142;-82
2022/01/07 10:10:07;;;;;;;1999.90;860.60;;;10.20;99.90;;;;;;4803145;29;20408;-81
2022/01/07 10:13:00;;;;;;;985.50;632.40;;;7.50;99.90;;;;;;4803791;29;20055;-81
2022/01/07 10:15:32;;;;;;;1742.38;941.05;;;6.40;99.90;;;;;;4812397;29;20065;-81
2022/01/07 10:18:04;;;;;;;348.85;250.55;;;7.60;99.90;;;;;;4787610;29;20067;-82
2022/01/07 10:20:37;;;;;;;1908.85;575.33;;;7.20;99.90;;;;;;4803393;29;20092;-82
2022/01/07 10:23:05;;;;;;;30.45;27.45;;;7.10;99.90;;;;;;4803517;29;20120;-83
2022/01/07 10:25:33;;;;;;;148.15;134.05;;;7.20;99.90;;;;;;4802401;29;20051;-84
2022/01/07 10:28:30;;;;;;;497.10;438.05;;;6.30;99.90;;;;;;4806349;29;20055;-83
2022/01/07 10:30:56;;;;;;;67.95;62.70;;;;;;;;;;4778308;30;20473;-82
2022/01/07 10:33:34;;;;;;;385.10;343.13;;;8.00;99.90;;;;;;4788617;30;20145;-82
2022/01/07 10:36:06;;;;;;;905.30;481.50;;;6.90;99.90;;;;;;4789507;30;20063;-82
2022/01/07 10:38:34;;;;;;;1886.60;645.17;;;7.10;99.90;;;;;;4789222;30;20055;-82
2022/01/07 10:41:00;;;;;;;139.65;73.13;;;;;;;;;;4789020;30;20067;-82
2022/01/07 10:43:34;;;;;;;107.55;96.53;;;5.70;99.90;;;;;;4788714;30;20051;-81
2022/01/07 10:46:11;;;;;;;880.08;369.30;;;9.20;99.90;;;;;;4788987;30;20058;-81
2022/01/07 10:48:38;;;;;;;1999.90;999.90;;;6.90;99.90;;;;;;4805840;29;20159;-81
2022/01/07 10:51:14;;;;;;;1999.90;999.90;;;6.80;99.90;;;;;;4806847;29;20125;-83
2022/01/07 10:53:41;;;;;;;1765.07;493.25;;;6.70;99.90;;;;;;4805024;29;20054;-82
2022/01/07 10:56:07;;;;;;;70.25;63.83;;;;;;;;;;4806405;29;20057;-82
2022/01/07 10:58:48;;;;;;;216.68;85.05;;;7.80;99.90;;;;;;4806709;29;20145;-82
2022/01/07 11:01:19;;;;;;;1313.68;719.70;;;5.30;99.90;;;;;;4806053;29;20062;-81
2022/01/07 11:03:51;;;;;;;184.05;111.72;;;8.10;99.90;;;;;;4789851;29;20493;-81
2022/01/07 11:06:17;;;;;;;78.40;70.13;;;5.50;99.90;;;;;;4805919;29;20125;-82
2022/01/07 11:08:43;;;;;;;128.85;106.40;;;6.20;99.90;;;;;;4805476;29;20481;-81
2022/01/07 11:11:10;;;;;;;56.78;49.95;;;7.50;99.90;;;;;;4804750;29;20058;-82
2022/01/07 11:13:37;;;;;;;1100.22;442.95;;;7.60;99.90;;;;;;4805905;29;20523;-82
2022/01/07 11:16:05;;;;;;;1207.85;453.88;;;9.90;99.90;;;;;;4805841;29;20054;-81
2022/01/07 11:18:31;;;;;;;431.15;388.67;;;8.00;99.90;;;;;;4805963;29;20057;-81
2022/01/07 11:20:58;;;;;;;1474.63;646.20;;;7.00;99.90;;;;;;4789814;29;20055;-81
2022/01/07 11:23:31;;;;;;;1999.90;933.65;;;6.90;99.90;;;;;;4805344;29;20086;-81
2022/01/07 11:26:10;;;;;;;1730.45;803.22;;;9.50;99.90;;;;;;4805731;29;20109;-83
2022/01/07 11:28:37;;;;;;;1971.88;532.17;;;7.30;99.90;;;;;;4805999;29;20065;-82
2022/01/07 11:31:12;;;;;;;1998.15;627.55;;;7.20;99.90;;;;;;4806156;29;20361;-82
2022/01/07 11:33:38;;;;;;;189.77;84.10;;;8.40;99.90;;;;;;4806238;29;20043;-82
2022/01/07 11:36:04;;;;;;;152.23;122.65;;;5.90;99.90;;;;;;4806705;29;20050;-82
2022/01/07 11:38:44;;;;;;;1826.40;432.17;;;8.80;99.90;;;;;;4805612;29;20059;-83
2022/01/07 11:41:34;;;;;;;377.42;225.90;;;5.60;99.90;;;;;;4806351;29;20119;-90
2022/01/07 11:44:13;;;;;;;1843.13;320.25;;;6.70;99.90;;;;;;4789656;29;20111;-82
2022/01/07 11:46:39;;;;;;;285.67;250.40;;;7.40;99.90;;;;;;4790112;29;20158;-83
2022/01/07 11:49:05;;;;;;;1999.90;984.85;;;9.70;99.90;;;;;;4806185;29;20373;-82
2022/01/07 11:51:40;;;;;;;653.00;415.17;;;6.80;99.90;;;;;;4806038;29;20063;-82
2022/01/07 11:54:09;;;;;;;74.88;53.45;;;7.10;99.90;;;;;;4806072;29;20050;-82
2022/01/07 11:56:37;;;;;;;72.60;47.72;;;7.10;99.90;;;;;;4805305;29;20050;-83
2022/01/07 11:59:15;;;;;;;85.75;71.65;;;9.80;99.90;;;;;;4805913;29;20054;-82
2022/01/07 12:01:41;;;;;;;247.60;177.73;;;7.00;99.90;;;;;;4806240;29;20528;-82
2022/01/07 12:04:26;;;;;;;877.97;563.20;;;8.30;99.90;;;;;;4804534;29;20131;-82
2022/01/07 12:06:56;;;;;;;216.45;192.50;;;7.70;99.90;;;;;;4805287;29;20063;-83
2022/01/07 12:09:35;;;;;;;1999.90;783.35;;;7.10;99.90;;;;;;4804984;29;20436;-82
2022/01/07 12:12:12;;;;;;;1999.90;999.90;;;9.20;99.90;;;;;;4804603;29;20051;-82
2022/01/07 12:14:51;;;;;;;100.88;91.00;;;6.90;99.90;;;;;;4804785;29;20521;-83
2022/01/07 12:17:19;;;;;;;184.27;167.40;;;7.50;99.90;;;;;;4804871;29;20051;-83
2022/01/07 12:19:48;;;;;;;425.05;196.50;;;8.20;99.90;;;;;;4805454;29;20103;-82
2022/01/07 12:22:20;;;;;;;183.00;164.80;;;6.80;99.90;;;;;;4805356;29;20061;-90
2022/01/07 12:24:47;;;;;;;286.88;205.57;;;;;;;;;;4806117;29;20130;-82
2022/01/07 12:27:20;;;;;;;154.10;106.97;;;7.40;99.90;;;;;;4805467;29;20129;-82
2022/01/07 12:29:52;;;;;;;72.97;67.00;;;7.30;99.90;;;;;;4805038;29;20091;-82
2022/01/07 12:32:19;;;;;;;1435.90;581.00;;;6.30;99.90;;;;;;4805210;29;20527;-82
2022/01/07 12:34:47;;;;;;;649.70;257.70;;;5.80;99.90;;;;;;4804836;29;20094;-82
2022/01/07 12:37:27;;;;;;;362.92;281.73;;;7.70;99.90;;;;;;4804223;29;20112;-82
2022/01/07 12:40:03;;;;;;;1999.90;999.90;;;6.40;99.90;;;;;;4804291;29;20556;-82
2022/01/07 12:42:35;;;;;;;671.03;397.38;;;6.50;99.90;;;;;;4804886;29;20090;-82
2022/01/07 12:45:01;;;;;;;58.72;53.20;;;9.80;99.90;;;;;;4789377;29;20057;-82
2022/01/07 12:47:29;;;;;;;1281.32;552.17;;;6.50;99.90;;;;;;4805111;29;20047;-83
2022/01/07 12:50:04;;;;;;;246.77;192.80;;;9.50;99.90;;;;;;4805294;29;20098;-82
2022/01/07 12:52:37;;;;;;;1844.28;691.85;;;7.30;99.90;;;;;;4805333;29;20066;-82
2022/01/07 12:55:15;;;;;;;1529.20;859.55;;;6.60;99.90;;;;;;4805373;29;20051;-82
2022/01/07 12:57:56;;;;;;;773.78;353.27;;;6.40;99.90;;;;;;4804182;29;20073;-83